Time;durP1;ratioP1;P1;durP2;ratioP2;P2;SDS_P1;SDS_P2;PMS_P1;PMS_P2;Temp;Humidity;BMP_temperature;BMP_pressure;BME280_temperature;BME280_humidity;BME280_pressure;Samples;Min_cycle;Max_cycle;Signal;HPM_P1;HPM_P2
2024/02/29 00:01:58;;;;;;;40.45;28.63;;;9.40;99.90;;;9.58;100.00;101305.72;4953156;29;20071;-63
2024/02/29 00:04:28;;;;;;;43.05;29.02;;;9.30;99.90;;;9.57;100.00;101285.50;4953512;29;20082;-62
2024/02/29 00:06:56;;;;;;;41.75;29.10;;;9.40;99.90;;;9.47;100.00;101267.81;4954920;29;20386;-63
2024/02/29 00:09:25;;;;;;;41.50;28.77;;;9.40;99.90;;;9.52;100.00;101274.03;4955086;29;20509;-62
2024/02/29 00:11:54;;;;;;;44.88;30.02;;;9.30;99.90;;;9.55;100.00;101276.69;4954818;29;20046;-62
2024/02/29 00:14:24;;;;;;;43.83;29.15;;;9.30;99.90;;;9.57;100.00;101289.88;4937905;29;20074;-61
2024/02/29 00:16:53;;;;;;;47.20;29.92;;;9.30;99.90;;;9.44;100.00;101270.44;4954988;29;20466;-62
2024/02/29 00:19:21;;;;;;;46.97;30.08;;;9.30;99.90;;;9.36;100.00;101250.16;4937617;29;20450;-62
2024/02/29 00:21:50;;;;;;;43.00;28.73;;;9.20;99.90;;;9.35;100.00;101265.09;4954740;29;20102;-63
2024/02/29 00:24:18;;;;;;;47.08;31.00;;;9.20;99.90;;;9.35;100.00;101258.94;4937331;29;20481;-61
2024/02/29 00:26:47;;;;;;;45.70;30.95;;;9.20;99.90;;;9.35;100.00;101267.72;4954602;29;20134;-63
2024/02/29 00:29:16;;;;;;;43.97;29.77;;;9.10;99.90;;;9.30;100.00;101250.09;4954909;29;20059;-62
2024/02/29 00:31:46;;;;;;;45.10;31.52;;;9.10;99.90;;;9.38;100.00;101258.97;4954624;29;20043;-61
2024/02/29 00:34:14;;;;;;;49.00;30.15;;;9.20;99.90;;;9.25;100.00;101250.09;4954646;29;20134;-61
2024/02/29 00:36:43;;;;;;;48.85;30.52;;;9.10;99.90;;;9.38;100.00;101258.97;4937280;29;20516;-62
2024/02/29 00:39:12;;;;;;;49.40;32.03;;;9.20;99.90;;;9.40;100.00;101242.25;4954506;29;20047;-62
2024/02/29 00:41:42;;;;;;;47.55;31.60;;;9.20;99.90;;;9.36;100.00;101251.03;4954527;29;20047;-61
2024/02/29 00:44:11;;;;;;;46.17;31.23;;;9.20;99.90;;;9.46;100.00;101262.53;4954562;29;20051;-62
2024/02/29 00:46:39;;;;;;;44.17;29.45;;;9.20;99.90;;;9.43;100.00;101251.94;4954412;29;20047;-62
2024/02/29 00:49:09;;;;;;;46.25;30.50;;;9.20;99.90;;;9.40;100.00;101254.56;4954416;29;20063;-61
2024/02/29 00:51:38;;;;;;;42.47;29.27;;;9.20;99.90;;;9.26;100.00;101232.47;4954763;29;20374;-61
2024/02/29 00:54:07;;;;;;;47.00;29.98;;;9.20;99.90;;;9.25;100.00;101218.41;4954455;29;20047;-63
2024/02/29 00:56:35;;;;;;;45.38;29.83;;;9.10;99.90;;;9.34;100.00;101226.38;4954355;29;20114;-62
2024/02/29 00:59:03;;;;;;;49.65;29.33;;;9.10;99.90;;;9.35;100.00;101248.41;4954485;29;20047;-62
2024/02/29 01:01:34;;;;;;;51.13;30.75;;;9.10;99.90;;;9.29;100.00;101240.44;4954441;29;20047;-62
2024/02/29 01:04:03;;;;;;;44.53;28.27;;;9.10;99.90;;;9.27;100.00;101208.72;4954462;29;20062;-61
2024/02/29 01:06:33;;;;;;;44.83;27.77;;;9.10;99.90;;;9.25;100.00;101209.59;4954210;29;20066;-62
2024/02/29 01:09:04;;;;;;;45.33;28.60;;;9.10;99.90;;;9.24;100.00;101210.47;4954373;29;20047;-63
2024/02/29 01:11:32;;;;;;;44.30;29.20;;;9.10;99.90;;;9.19;100.00;101202.53;4954337;29;20062;-61
2024/02/29 01:14:02;;;;;;;45.67;28.13;;;9.00;99.90;;;9.30;100.00;101202.59;4937108;29;20047;-61
2024/02/29 01:16:31;;;;;;;43.83;27.63;;;9.10;99.90;;;9.14;100.00;101229.78;4954185;29;20102;-62
2024/02/29 01:19:00;;;;;;;41.53;28.35;;;9.00;99.90;;;8.92;100.00;101165.41;4937052;29;20110;-62
2024/02/29 01:21:29;;;;;;;48.03;29.25;;;8.90;99.90;;;9.14;100.00;101195.47;4954180;29;20051;-61
2024/02/29 01:24:00;;;;;;;45.25;28.60;;;8.90;99.90;;;9.09;100.00;101190.16;4954500;29;20059;-61
2024/02/29 01:26:28;;;;;;;47.30;28.08;;;9.00;99.90;;;9.13;100.00;101194.56;4936962;29;20067;-63
2024/02/29 01:28:57;;;;;;;51.90;30.00;;;9.00;99.90;;;9.14;100.00;101169.94;4954112;29;20102;-62
2024/02/29 01:31:25;;;;;;;44.20;28.08;;;8.90;99.90;;;9.13;100.00;101173.47;4954174;29;20047;-62
2024/02/29 01:33:53;;;;;;;46.50;28.35;;;9.00;99.90;;;9.18;100.00;101168.19;4954076;28;20458;-61
2024/02/29 01:36:24;;;;;;;49.80;29.20;;;9.00;99.90;;;9.10;100.00;101176.06;4956843;29;20063;-62
2024/02/29 01:38:52;;;;;;;43.42;28.00;;;9.00;99.90;;;9.10;100.00;101165.50;4957643;29;20043;-62
2024/02/29 01:41:22;;;;;;;45.67;28.90;;;9.00;99.90;;;9.07;100.00;101184.88;4957659;29;20523;-62
2024/02/29 01:43:52;;;;;;;43.78;27.42;;;8.90;99.90;;;9.17;100.00;101154.16;4957827;29;20047;-62
2024/02/29 01:46:21;;;;;;;42.70;26.63;;;8.90;99.90;;;9.16;100.00;101170.84;4940212;29;20051;-62
2024/02/29 01:48:50;;;;;;;42.00;28.10;;;9.00;99.90;;;9.19;100.00;101157.69;4957327;29;20456;-61
2024/02/29 01:51:21;;;;;;;38.80;27.08;;;9.00;99.90;;;9.25;100.00;101163.00;4940242;29;20524;-65
2024/02/29 01:53:49;;;;;;;42.17;26.60;;;9.10;99.90;;;9.27;100.00;101147.16;4957218;29;20131;-62
2024/02/29 01:56:21;;;;;;;40.80;26.52;;;9.00;99.90;;;9.22;100.00;101141.84;4957338;29;20066;-61
2024/02/29 01:58:50;;;;;;;39.15;26.63;;;9.10;99.90;;;9.28;100.00;101133.97;4957172;29;20087;-61
2024/02/29 02:01:19;;;;;;;41.10;26.52;;;9.00;99.90;;;9.25;100.00;101125.16;4940018;29;20535;-62
2024/02/29 02:03:47;;;;;;;46.95;28.20;;;9.00;99.90;;;9.28;100.00;101128.69;4957062;29;20062;-63
2024/02/29 02:06:16;;;;;;;44.53;28.58;;;9.10;99.90;;;9.25;100.00;101131.31;4957141;29;20505;-61
2024/02/29 02:08:44;;;;;;;40.67;27.23;;;9.00;99.90;;;9.30;100.00;101134.84;4957078;29;20047;-62
2024/02/29 02:11:14;;;;;;;41.72;28.05;;;9.10;99.90;;;9.29;100.00;101135.72;4956132;29;20058;-62
2024/02/29 02:13:44;;;;;;;38.28;26.90;;;9.10;99.90;;;9.27;100.00;101110.22;4955145;29;20043;-62
2024/02/29 02:16:13;;;;;;;49.53;27.40;;;9.10;99.90;;;9.28;100.00;101118.13;4955680;29;20047;-62
2024/02/29 02:18:41;;;;;;;37.42;25.08;;;9.10;99.90;;;9.25;100.00;101112.84;4956303;29;20059;-62
2024/02/29 02:21:11;;;;;;;43.85;26.83;;;9.10;99.90;;;9.27;100.00;101105.78;4954953;29;20046;-63
2024/02/29 02:23:39;;;;;;;43.30;26.93;;;9.10;99.90;;;9.27;100.00;101103.16;4955052;29;20051;-62
2024/02/29 02:26:07;;;;;;;42.67;28.05;;;9.10;99.90;;;9.29;100.00;101097.91;4954789;29;20291;-63
2024/02/29 02:28:36;;;;;;;41.97;28.25;;;9.10;99.90;;;9.27;100.00;101112.84;4954852;29;20122;-62
2024/02/29 02:31:04;;;;;;;41.25;27.02;;;9.10;99.90;;;9.34;100.00;101096.16;4937469;29;20502;-62
2024/02/29 02:33:33;;;;;;;42.88;27.27;;;9.10;99.90;;;9.27;100.00;101107.56;4954815;29;20505;-62
2024/02/29 02:36:01;;;;;;;38.63;27.48;;;9.10;99.90;;;9.24;100.00;101094.34;4954810;29;20055;-62
2024/02/29 02:38:31;;;;;;;41.63;27.67;;;9.00;99.90;;;9.26;100.00;101098.75;4955008;29;20445;-63
2024/02/29 02:40:59;;;;;;;41.57;26.43;;;9.00;99.90;;;9.29;100.00;101082.91;4954624;29;20051;-62
2024/02/29 02:43:28;;;;;;;44.28;27.75;;;9.10;99.90;;;9.23;100.00;101089.94;4954577;29;20294;-62
2024/02/29 02:45:56;;;;;;;38.70;27.60;;;9.00;99.90;;;9.22;100.00;101073.22;4954290;28;20097;-63
2024/02/29 02:48:25;;;;;;;39.72;27.58;;;9.10;99.90;;;9.32;100.00;101085.59;4954510;29;20094;-62
2024/02/29 02:50:53;;;;;;;46.10;29.13;;;9.10;99.90;;;9.30;100.00;101071.50;4954471;29;20130;-63
2024/02/29 02:53:25;;;;;;;42.40;27.90;;;9.10;99.90;;;9.34;100.00;101067.09;4937189;29;20595;-62
2024/02/29 02:55:54;;;;;;;43.25;29.05;;;9.10;99.90;;;9.34;100.00;101060.09;4954286;29;20126;-62
2024/02/29 02:58:23;;;;;;;41.60;27.33;;;9.10;99.90;;;9.34;100.00;101057.44;4954321;29;20051;-62
2024/02/29 03:00:51;;;;;;;41.42;26.80;;;9.20;99.90;;;9.37;100.00;101048.66;4954317;29;20353;-62
2024/02/29 03:03:20;;;;;;;39.08;27.13;;;9.10;99.90;;;9.40;100.00;101057.47;4954521;29;20425;-62
2024/02/29 03:05:49;;;;;;;45.30;27.65;;;9.20;99.90;;;9.34;100.00;101052.16;4954244;29;20529;-63
2024/02/29 03:08:17;;;;;;;37.60;26.98;;;9.20;99.90;;;9.35;100.00;101045.13;4954096;29;20094;-63
2024/02/29 03:10:46;;;;;;;39.53;25.80;;;9.20;99.90;;;9.37;100.00;101041.59;4954003;29;20079;-62
2024/02/29 03:13:16;;;;;;;45.40;27.27;;;9.20;99.90;;;9.36;100.00;101033.69;4954051;29;20047;-62
2024/02/29 03:15:45;;;;;;;38.55;26.90;;;9.20;99.90;;;9.34;100.00;101038.97;4954016;29;20051;-63
2024/02/29 03:18:13;;;;;;;37.55;27.23;;;9.20;99.90;;;9.36;100.00;101031.03;4953614;29;20062;-62
2024/02/29 03:20:41;;;;;;;42.67;28.42;;;9.20;99.90;;;9.34;100.00;101040.72;4953870;29;20055;-62
2024/02/29 03:23:10;;;;;;;39.22;28.17;;;9.20;99.90;;;9.36;100.00;101038.97;4936551;29;20552;-63
2024/02/29 03:25:38;;;;;;;40.10;27.90;;;9.20;99.90;;;9.42;100.00;101025.78;4953796;29;20146;-62
2024/02/29 03:28:06;;;;;;;42.00;28.08;;;9.20;99.90;;;9.34;100.00;101031.03;4953686;29;20536;-62
2024/02/29 03:30:36;;;;;;;42.45;28.55;;;9.20;99.90;;;9.35;100.00;101022.22;4953714;29;20509;-64
2024/02/29 03:33:05;;;;;;;39.80;27.90;;;9.20;99.90;;;9.36;100.00;101034.56;4953911;29;20693;-64
2024/02/29 03:35:33;;;;;;;40.70;27.80;;;9.20;99.90;;;9.38;100.00;101000.25;4953537;29;20765;-63
2024/02/29 03:38:02;;;;;;;36.45;26.90;;;9.20;99.90;;;9.44;100.00;101001.16;4953580;29;20416;-64
2024/02/29 03:40:31;;;;;;;37.25;27.02;;;9.20;99.90;;;9.44;100.00;100995.88;4936232;29;20055;-63
2024/02/29 03:42:59;;;;;;;37.72;26.15;;;9.30;99.90;;;9.42;100.00;101002.91;4953514;29;20137;-62
2024/02/29 03:45:27;;;;;;;38.35;27.40;;;9.20;99.90;;;9.44;100.00;101019.66;4953483;29;20122;-63
2024/02/29 03:47:57;;;;;;;38.90;26.20;;;9.30;99.90;;;9.44;100.00;101002.91;4953312;29;20065;-62
2024/02/29 03:50:26;;;;;;;33.33;24.57;;;9.20;99.90;;;9.45;100.00;101002.03;4953466;29;20118;-64
2024/02/29 03:52:54;;;;;;;33.65;25.38;;;9.20;99.90;;;9.39;100.00;101002.91;4953413;29;20078;-62
2024/02/29 03:55:23;;;;;;;37.75;26.42;;;9.20;99.90;;;9.44;100.00;100984.44;4953256;29;20102;-63
2024/02/29 03:57:51;;;;;;;31.70;25.13;;;9.30;99.90;;;9.50;100.00;100985.34;4952742;28;20047;-63
2024/02/29 04:00:20;;;;;;;35.42;25.85;;;9.30;99.90;;;9.55;100.00;100962.44;4936005;29;20132;-63
2024/02/29 04:02:48;;;;;;;32.67;24.73;;;9.30;99.90;;;9.56;100.00;100985.31;4953221;29;20078;-62
2024/02/29 04:05:18;;;;;;;37.90;25.02;;;9.30;99.90;;;9.55;100.00;100977.41;4953063;29;20054;-62
2024/02/29 04:07:47;;;;;;;34.70;25.07;;;9.30;99.90;;;9.61;100.00;100962.47;4953065;29;20122;-63
2024/02/29 04:10:15;;;;;;;35.92;26.40;;;9.40;99.90;;;9.62;100.00;100973.91;4953042;29;20085;-62
2024/02/29 04:12:43;;;;;;;35.33;25.92;;;9.40;99.90;;;9.70;100.00;100966.84;4953095;29;20505;-63
2024/02/29 04:15:12;;;;;;;33.22;24.38;;;9.50;99.90;;;9.59;100.00;100965.97;4953018;29;20485;-62
2024/02/29 04:17:40;;;;;;;31.40;24.42;;;9.50;99.90;;;9.68;100.00;100971.25;4952923;29;20139;-63
2024/02/29 04:20:10;;;;;;;37.30;23.85;;;9.40;99.90;;;9.61;100.00;100951.91;4952957;29;20075;-63
2024/02/29 04:22:43;;;;;;;36.83;24.67;;;9.40;99.90;;;9.65;100.00;100973.91;4952969;29;20051;-62
2024/02/29 04:25:12;;;;;;;36.05;24.65;;;9.40;99.90;;;9.62;100.00;100956.28;4952908;29;20465;-62
2024/02/29 04:27:41;;;;;;;34.38;23.85;;;9.40;99.90;;;9.72;100.00;100954.53;4952716;29;20039;-62
2024/02/29 04:30:11;;;;;;;32.35;23.83;;;9.50;99.90;;;9.69;100.00;100960.72;4952899;29;20058;-64
2024/02/29 04:32:39;;;;;;;30.27;23.75;;;9.50;99.90;;;9.71;100.00;100953.66;4952764;29;20051;-64
2024/02/29 04:35:10;;;;;;;32.43;23.97;;;9.50;99.90;;;9.77;100.00;100956.31;4952863;29;20055;-63
2024/02/29 04:37:40;;;;;;;36.92;23.83;;;9.50;99.90;;;9.64;100.00;100966.88;4952855;29;20913;-62
2024/02/29 04:40:13;;;;;;;33.95;23.40;;;9.50;99.90;;;9.63;100.00;100939.56;4952819;29;20043;-62
2024/02/29 04:42:41;;;;;;;37.00;23.75;;;9.50;99.90;;;9.66;100.00;100929.00;4952657;29;20050;-62
2024/02/29 04:45:10;;;;;;;32.63;23.42;;;9.50;99.90;;;9.70;100.00;100930.75;4952681;29;20493;-62
2024/02/29 04:47:39;;;;;;;32.50;22.65;;;9.50;99.90;;;9.71;100.00;100948.38;4952550;29;20085;-62
2024/02/29 04:50:09;;;;;;;34.13;22.90;;;9.50;99.90;;;9.72;100.00;100934.28;4952727;29;20047;-62
2024/02/29 04:52:38;;;;;;;31.73;22.63;;;9.50;99.90;;;9.65;100.00;100943.09;4952609;29;20051;-62
2024/02/29 04:55:09;;;;;;;28.70;21.90;;;9.50;99.90;;;9.68;100.00;100927.25;4952556;29;20051;-62
2024/02/29 04:57:37;;;;;;;28.40;21.48;;;9.50;99.90;;;9.69;100.00;100923.75;4935336;29;20090;-65
2024/02/29 05:00:10;;;;;;;36.67;23.05;;;9.50;99.90;;;9.69;100.00;100922.84;4952572;29;20557;-64
2024/02/29 05:02:38;;;;;;;30.00;22.80;;;9.50;99.90;;;9.64;100.00;100928.13;4952516;29;20057;-62
2024/02/29 05:05:07;;;;;;;29.17;21.98;;;9.50;99.90;;;9.71;100.00;100936.94;4952481;29;20162;-65
2024/02/29 05:07:35;;;;;;;31.25;21.30;;;9.50;99.90;;;9.72;100.00;100928.13;4935174;29;20106;-62
2024/02/29 05:10:07;;;;;;;27.90;21.23;;;9.50;99.90;;;9.74;100.00;100913.16;4954920;28;20122;-63
2024/02/29 05:12:37;;;;;;;29.45;21.35;;;9.50;99.90;;;9.71;100.00;100921.09;4956529;29;20429;-62
2024/02/29 05:15:07;;;;;;;28.98;21.83;;;9.50;99.90;;;9.66;100.00;100912.25;4956523;29;20125;-63
2024/02/29 05:17:37;;;;;;;28.75;20.88;;;9.50;99.90;;;9.77;100.00;100921.09;4956068;29;20058;-63
2024/02/29 05:20:07;;;;;;;28.13;21.42;;;9.60;99.90;;;9.74;100.00;100926.34;4956203;29;20055;-62
2024/02/29 05:22:36;;;;;;;30.67;22.17;;;9.50;99.90;;;9.71;100.00;100921.97;4956056;29;20051;-63
2024/02/29 05:25:09;;;;;;;28.23;21.58;;;9.50;99.90;;;9.74;100.00;100921.06;4956110;29;20060;-62
2024/02/29 05:27:40;;;;;;;32.55;22.88;;;9.50;99.90;;;9.62;100.00;100918.47;4938669;29;20425;-64
2024/02/29 05:30:09;;;;;;;27.73;22.42;;;9.40;99.90;;;9.64;100.00;100930.75;4955893;29;20134;-64
2024/02/29 05:32:38;;;;;;;31.85;23.33;;;9.40;99.90;;;9.66;100.00;100892.03;4955846;29;20050;-62
2024/02/29 05:35:08;;;;;;;29.40;21.45;;;9.50;99.90;;;9.78;100.00;100902.59;4938494;29;20047;-61
2024/02/29 05:37:36;;;;;;;31.50;20.98;;;9.50;99.90;;;9.80;100.00;100906.13;4955782;29;20094;-62
2024/02/29 05:40:07;;;;;;;28.23;21.38;;;9.60;99.90;;;9.75;100.00;100885.88;4955676;29;20106;-65
2024/02/29 05:42:35;;;;;;;27.70;22.35;;;9.60;99.90;;;9.66;100.00;100889.38;4955726;29;20043;-64
2024/02/29 05:45:08;;;;;;;33.38;22.13;;;9.50;99.90;;;9.78;100.00;100902.59;4938445;29;20086;-63
2024/02/29 05:47:36;;;;;;;34.33;22.42;;;9.50;99.90;;;9.73;100.00;100883.25;4955649;29;20177;-64
2024/02/29 05:50:07;;;;;;;34.55;22.20;;;9.50;99.90;;;9.70;100.00;100898.19;4955578;29;20032;-62
2024/02/29 05:52:49;;;;;;;;;;;9.50;99.90;;;9.63;100.00;100886.75;4956033;29;20110;-64
2024/02/29 05:55:20;;;;;;;31.85;22.00;;;9.40;99.90;;;9.71;100.00;100884.13;4955686;29;19926;-62
2024/02/29 05:57:49;;;;;;;30.85;22.92;;;9.50;99.90;;;9.67;100.00;100888.53;4955548;29;20043;-62
2024/02/29 06:00:22;;;;;;;30.52;23.75;;;9.40;99.90;;;9.54;100.00;100848.91;4955498;29;20039;-62
2024/02/29 06:02:50;;;;;;;30.60;22.95;;;9.50;99.90;;;9.78;100.00;100881.47;4938109;29;20058;-62
2024/02/29 06:05:20;;;;;;;34.88;23.77;;;9.50;99.90;;;9.67;100.00;100879.72;4955601;29;20047;-61
2024/02/29 06:07:49;;;;;;;27.73;21.98;;;9.50;99.90;;;9.72;100.00;100891.13;4955149;29;20098;-63
2024/02/29 06:10:19;;;;;;;26.73;21.58;;;9.50;99.90;;;9.67;100.00;100883.25;4955136;29;20138;-62
2024/02/29 06:12:47;;;;;;;27.85;21.95;;;9.50;99.90;;;9.70;100.00;100869.13;4955239;29;20075;-63
2024/02/29 06:15:18;;;;;;;27.90;21.80;;;9.50;99.90;;;9.71;100.00;100899.97;4955189;29;20070;-64
2024/02/29 06:17:49;;;;;;;29.17;22.80;;;9.50;99.90;;;9.65;100.00;100895.56;4954945;29;20066;-63
2024/02/29 06:20:17;;;;;;;27.45;21.85;;;9.40;99.90;;;9.66;100.00;100867.38;4954897;28;20102;-63
2024/02/29 06:22:46;;;;;;;23.98;21.30;;;9.40;99.90;;;9.69;100.00;100870.03;4954825;29;20074;-63
2024/02/29 06:25:14;;;;;;;23.63;20.15;;;9.50;99.90;;;9.67;100.00;100867.41;4953718;28;20051;-62
2024/02/29 06:27:42;;;;;;;30.23;21.90;;;9.50;99.90;;;9.69;100.00;100867.38;4954919;29;20051;-66
2024/02/29 06:30:12;;;;;;;24.50;19.65;;;9.40;99.90;;;9.67;100.00;100864.75;4954813;29;20043;-62
2024/02/29 06:32:43;;;;;;;26.23;20.48;;;9.50;99.90;;;9.65;100.00;100860.34;4954735;29;20052;-61
2024/02/29 06:35:12;;;;;;;24.65;20.75;;;9.50;99.90;;;9.60;100.00;100865.63;4954773;29;20770;-61
2024/02/29 06:37:42;;;;;;;30.60;21.98;;;9.40;99.90;;;9.62;100.00;100858.56;4954826;29;20067;-62
2024/02/29 06:40:12;;;;;;;28.70;22.42;;;9.40;99.90;;;9.74;100.00;100862.97;4954879;29;20142;-62
2024/02/29 06:42:41;;;;;;;29.88;21.70;;;9.50;99.90;;;9.63;100.00;100855.06;4954573;29;20066;-63
2024/02/29 06:45:10;;;;;;;27.00;20.55;;;9.40;99.90;;;9.68;100.00;100861.22;4954503;29;20058;-62
2024/02/29 06:47:42;;;;;;;28.58;20.60;;;9.50;99.90;;;9.60;100.00;100849.78;4937328;29;20572;-62
2024/02/29 06:50:12;;;;;;;26.88;21.50;;;9.40;99.90;;;9.67;100.00;100856.84;4954402;29;20353;-63
2024/02/29 06:52:41;;;;;;;30.38;22.05;;;9.50;99.90;;;9.59;100.00;100819.00;4954896;29;20047;-62
2024/02/29 06:55:10;;;;;;;29.80;21.88;;;9.50;99.90;;;9.63;100.00;100868.28;4954422;29;20047;-62
2024/02/29 06:57:38;;;;;;;29.58;21.50;;;9.50;99.90;;;9.65;100.00;100860.34;4954397;29;20050;-62
2024/02/29 07:00:10;;;;;;;30.35;21.33;;;9.50;99.90;;;9.68;100.00;100837.44;4954238;29;20053;-62
2024/02/29 07:02:39;;;;;;;26.08;21.70;;;9.50;99.90;;;9.68;100.00;100834.81;4954209;29;20061;-64
2024/02/29 07:05:09;;;;;;;25.40;22.30;;;9.50;99.90;;;9.73;100.00;100848.91;4954226;29;20055;-62
2024/02/29 07:07:38;;;;;;;28.70;20.90;;;9.50;99.90;;;9.71;100.00;100852.41;4954439;29;20055;-63
2024/02/29 07:10:09;;;;;;;32.25;21.90;;;9.50;99.90;;;9.42;100.00;100802.28;4953961;29;20091;-64
2024/02/29 07:12:37;;;;;;;29.23;22.00;;;9.50;99.90;;;9.54;100.00;100828.66;4936757;28;20066;-62
2024/02/29 07:15:07;;;;;;;26.75;21.75;;;9.50;99.90;;;9.64;100.00;100833.06;4953999;29;20067;-63
2024/02/29 07:17:35;;;;;;;31.45;23.17;;;9.50;99.90;;;9.73;100.00;100846.25;4953880;29;20063;-62
2024/02/29 07:20:04;;;;;;;30.52;22.13;;;9.50;99.90;;;9.75;100.00;100852.44;4953942;29;20039;-63
2024/02/29 07:22:34;;;;;;;29.90;23.17;;;9.50;99.90;;;9.71;100.00;100855.06;4953782;29;20066;-62
2024/02/29 07:25:03;;;;;;;30.33;22.23;;;9.50;99.90;;;9.76;100.00;100840.97;4954269;29;20465;-64
2024/02/29 07:27:32;;;;;;;31.80;22.70;;;9.60;99.90;;;9.75;100.00;100847.16;4953780;29;20480;-65
2024/02/29 07:30:00;;;;;;;31.70;23.02;;;9.60;99.90;;;9.78;100.00;100827.75;4953585;29;20082;-64
2024/02/29 07:32:29;;;;;;;29.42;21.67;;;9.50;99.90;;;9.83;100.00;100840.06;4952353;28;20086;-62
2024/02/29 07:34:59;;;;;;;28.42;22.33;;;9.60;99.90;;;9.86;100.00;100831.25;4936397;29;20059;-65
2024/02/29 07:37:28;;;;;;;30.08;22.20;;;9.60;99.90;;;9.84;100.00;100855.03;4953690;29;20051;-62
2024/02/29 07:39:58;;;;;;;29.42;21.13;;;9.60;99.90;;;9.83;100.00;100824.22;4952368;29;20047;-64
2024/02/29 07:42:27;;;;;;;23.33;20.77;;;9.60;99.90;;;9.71;100.00;100839.22;4953361;29;20043;-63
2024/02/29 07:44:55;;;;;;;28.77;21.88;;;9.50;99.90;;;9.77;100.00;100828.66;4953283;29;20047;-63
2024/02/29 07:47:24;;;;;;;33.03;22.90;;;9.50;99.90;;;9.78;100.00;100820.72;4936148;29;20083;-63
2024/02/29 07:49:52;;;;;;;26.90;22.25;;;9.60;99.90;;;9.82;100.00;100821.56;4953189;29;20109;-62
2024/02/29 07:52:21;;;;;;;25.92;20.83;;;9.60;99.90;;;9.84;100.00;100818.06;4953403;29;20453;-62
2024/02/29 07:54:49;;;;;;;31.63;22.35;;;9.60;99.90;;;9.87;100.00;100823.31;4953241;29;20050;-63
2024/02/29 07:57:19;;;;;;;30.23;20.92;;;9.70;99.90;;;9.86;100.00;100832.16;4953286;29;20047;-62
2024/02/29 07:59:48;;;;;;;28.40;21.65;;;9.70;99.90;;;9.89;100.00;100799.56;4935986;29;20540;-62
2024/02/29 08:02:16;;;;;;;30.55;22.45;;;9.70;99.90;;;9.83;100.00;100826.84;4953233;29;20086;-64
2024/02/29 08:04:47;;;;;;;32.28;20.92;;;9.70;99.90;;;9.85;100.00;100824.22;4953305;29;20043;-62
2024/02/29 08:07:15;;;;;;;27.48;20.95;;;9.70;99.90;;;9.86;100.00;100829.50;4953202;29;20083;-62
2024/02/29 08:09:42;;;;;;;30.10;21.63;;;9.70;99.90;;;9.85;100.00;100811.88;4936297;29;20044;-62
2024/02/29 08:12:11;;;;;;;28.88;21.50;;;9.60;99.90;;;9.83;100.00;100816.28;4953083;29;20452;-62
2024/02/29 08:14:41;;;;;;;33.35;22.05;;;9.70;99.90;;;9.87;100.00;100833.88;4953261;29;20098;-62
2024/02/29 08:17:09;;;;;;;27.20;20.45;;;9.60;99.90;;;9.81;100.00;100828.59;4953307;29;20497;-62
2024/02/29 08:19:40;;;;;;;31.00;21.25;;;9.60;99.90;;;9.85;100.00;100809.22;4952957;29;20054;-64
2024/02/29 08:22:09;;;;;;;28.10;20.85;;;9.60;99.90;;;9.92;100.00;100829.50;4953035;29;20047;-62
2024/02/29 08:24:38;;;;;;;29.42;22.25;;;9.70;99.90;;;9.89;100.00;100813.63;4953485;29;20110;-61
2024/02/29 08:27:07;;;;;;;29.52;23.27;;;9.70;99.90;;;9.96;100.00;100823.31;4953583;29;20389;-64
2024/02/29 08:29:36;;;;;;;31.15;21.30;;;9.70;99.90;;;9.42;100.00;100724.84;4952541;29;20424;-63
2024/02/29 08:32:06;;;;;;;28.08;20.95;;;9.70;99.90;;;9.96;100.00;100823.31;4952836;29;20047;-63
2024/02/29 08:34:35;;;;;;;27.10;20.92;;;9.70;99.90;;;9.98;100.00;100812.75;4953905;29;20043;-62
2024/02/29 08:37:03;;;;;;;24.92;20.85;;;9.80;99.90;;;10.00;100.00;100811.84;4954733;29;20078;-62
2024/02/29 08:39:34;;;;;;;28.35;21.23;;;9.80;99.90;;;9.99;100.00;100820.66;4954521;29;20832;-65
2024/02/29 08:42:03;;;;;;;27.17;21.95;;;9.80;99.90;;;9.96;100.00;100809.22;4953264;29;20057;-63
2024/02/29 08:44:35;;;;;;;26.60;21.02;;;9.70;99.90;;;9.96;100.00;100807.47;4956214;28;20129;-65
2024/02/29 08:47:07;;;;;;;26.75;21.42;;;9.70;99.90;;;9.95;100.00;100803.03;4959207;29;20125;-63
2024/02/29 08:49:35;;;;;;;25.38;21.38;;;9.70;99.90;;;9.97;100.00;100801.28;4959156;28;20074;-62
2024/02/29 08:52:04;;;;;;;25.05;20.80;;;9.80;99.90;;;9.98;100.00;100803.06;4959077;28;20065;-64
2024/02/29 08:54:33;;;;;;;25.55;21.40;;;9.80;99.90;;;9.99;100.00;100807.44;4959200;29;20047;-63
2024/02/29 08:57:03;;;;;;;26.90;21.10;;;9.80;99.90;;;10.00;100.00;100798.66;4959077;28;20067;-64
2024/02/29 08:59:32;;;;;;;24.67;19.90;;;9.80;99.90;;;10.05;100.00;100798.59;4959747;28;20055;-62
2024/02/29 09:02:01;;;;;;;23.77;19.55;;;9.80;99.90;;;10.07;100.00;100814.44;4959742;29;20053;-62
2024/02/29 09:04:31;;;;;;;27.08;20.58;;;9.80;99.90;;;10.00;100.00;100795.13;4959013;29;20047;-62
2024/02/29 09:07:00;;;;;;;26.77;20.25;;;9.90;99.90;;;10.15;100.00;100791.56;4959216;28;20054;-63
2024/02/29 09:09:29;;;;;;;25.73;20.55;;;9.90;99.90;;;10.12;100.00;100792.47;4960803;29;20047;-64
2024/02/29 09:11:57;;;;;;;27.48;20.70;;;9.90;99.90;;;10.09;100.00;100781.88;4959325;29;20044;-62
2024/02/29 09:14:26;;;;;;;23.85;20.15;;;9.90;99.90;;;10.16;100.00;100781.00;4960910;28;20075;-62
2024/02/29 09:16:55;;;;;;;25.05;20.02;;;9.90;99.90;;;10.09;100.00;100787.16;4960745;28;20138;-62
2024/02/29 09:19:23;;;;;;;26.30;19.80;;;9.90;99.90;;;10.10;100.00;100783.66;4959804;28;20055;-62
2024/02/29 09:21:53;;;;;;;28.45;20.45;;;9.90;99.90;;;10.12;100.00;100786.31;4960714;28;20102;-63
2024/02/29 09:24:23;;;;;;;27.60;20.25;;;9.90;99.90;;;10.01;100.00;100771.31;4960639;29;20054;-62
2024/02/29 09:26:51;;;;;;;26.92;20.35;;;9.80;99.90;;;10.04;100.00;100770.44;4960726;29;20059;-62
2024/02/29 09:29:20;;;;;;;27.83;19.90;;;9.90;99.90;;;10.13;100.00;100777.47;4943468;29;20067;-62
2024/02/29 09:31:51;;;;;;;30.65;18.80;;;9.90;99.90;;;10.09;100.00;100799.47;4960728;29;20047;-62
2024/02/29 09:34:19;;;;;;;24.38;18.90;;;9.90;99.90;;;10.07;100.00;100778.34;4960626;29;20051;-62
2024/02/29 09:36:49;;;;;;;24.25;18.70;;;9.90;99.90;;;10.13;100.00;100782.75;4943407;29;20059;-62
2024/02/29 09:39:18;;;;;;;24.05;18.73;;;9.90;99.90;;;10.07;100.00;100770.41;4960408;28;20055;-61
2024/02/29 09:41:47;;;;;;;25.87;18.87;;;9.80;99.90;;;10.14;100.00;100773.97;4960609;29;20047;-62
2024/02/29 09:44:36;;;;;;;29.50;18.75;;;9.90;99.90;;;10.05;100.00;100782.75;4960474;29;20408;-62
2024/02/29 09:47:06;;;;;;;27.30;18.73;;;9.90;99.90;;;10.16;100.00;100756.34;4960305;28;20445;-63
2024/02/29 09:49:34;;;;;;;22.15;18.10;;;9.90;99.90;;;10.13;100.00;100772.19;4943509;29;20564;-62
2024/02/29 09:52:04;;;;;;;25.05;19.38;;;9.90;99.90;;;10.13;100.00;100777.47;4960434;28;20112;-63
2024/02/29 09:54:35;;;;;;;23.85;18.38;;;9.90;99.90;;;10.19;100.00;100765.13;4960545;29;20066;-63
2024/02/29 09:57:05;;;;;;;22.50;17.98;;;9.90;99.90;;;10.05;100.00;100774.81;4956648;28;20061;-63
2024/02/29 09:59:40;;;;;;;24.73;18.10;;;9.90;99.90;;;9.82;100.00;100737.94;4957506;29;20493;-62
2024/02/29 10:02:15;;;;;;;21.80;18.10;;;9.80;99.90;;;10.07;100.00;100757.22;4957511;29;20051;-64
2024/02/29 10:04:45;;;;;;;24.85;17.85;;;9.80;99.90;;;10.09;100.00;100760.72;4957757;29;20480;-64
2024/02/29 10:07:15;;;;;;;26.63;17.52;;;9.90;99.90;;;10.09;100.00;100758.06;4957345;29;20520;-63
2024/02/29 10:09:45;;;;;;;23.73;18.60;;;9.90;99.90;;;10.06;100.00;100742.25;4957383;29;20515;-64
2024/02/29 10:12:18;;;;;;;21.25;18.08;;;9.90;99.90;;;10.14;100.00;100753.72;4957295;29;20063;-64
2024/02/29 10:14:47;;;;;;;23.55;17.75;;;9.90;99.90;;;10.22;100.00;100756.31;4957212;29;20118;-63